Nuussuaq

KL  EN  DA
ASIAQ
Weather Now GREENLAND SURVEY
Updated [WGT/WGST] Temperature [°C] Wind [m/s] Air pressure [hPa] Relative humidity [%] Precipitation [mm]
Present Wind chill Speed Max
20.04 16:00-4,7-10,54,6 ⇖5,7100055n/a
20.04 15:00-4,7-11,25,7 ⇖7,2100058n/a
20.04 14:00-4,8-11,76,2 ⇖8,2100064n/a
20.04 13:00-5,0-12,26,7 ⇖8,2100043n/a
20.04 12:00n/an/a6,2 ⇖8,2n/an/an/a
20.04 11:00-5,7-12,86,2 ⇖8,2100051n/a
20.04 10:00-6,0-13,26,2 ⇖7,7100062n/a
20.04 09:00-6,3-13,66,2 ⇖7,7100069n/a
20.04 08:00-6,7-13,85,7 ⇖7,2100067n/a
20.04 07:00-7,1-12,63,6 ⇖5,1100058n/a
20.04 06:00-8,1-12,72,6 ⇐3,6100057n/a
20.04 05:00-8,20,01,0 ⇙1,5100075n/a
20.04 04:00-8,1-11,01,5 ⇐2,6100172n/a
20.04 03:00-8,3-12,32,1 ⇐2,6100169n/a
20.04 02:00-8,30,01,0 ⇐2,1100171n/a
20.04 01:00-8,40,01,0 ⇖2,1100172n/a
20.04 00:00-8,6-12,62,1 ⇐3,1100273n/a
19.04 23:00-8,60,01,0 ⇐2,1100274n/a
19.04 22:00-8,5-11,41,5 ⇐2,1100371n/a
19.04 21:00-8,2-11,11,5 ⇐2,6100365n/a
19.04 20:00-8,10,01,0 ⇑1,5100358n/a
19.04 19:00-7,50,01,0 ⇗2,1100453n/a
19.04 18:00-7,80,01,0 ⇗2,1100452n/a
19.04 17:00-6,00,00,0 ⇓0,5100445n/a
19.04 16:00-8,00,01,0 ⇙1,5100553n/a
Position: (70.656111111,-54.6)

[Back]